sensor_id;sensor_type;location;lat;lon;timestamp;P1;durP1;ratioP1;P2;durP2;ratioP2
27939;SDS011;15275;51.716;14.324;2023-04-24T00:00:55;3.00;;;2.47;;
27939;SDS011;15275;51.716;14.324;2023-04-24T00:03:25;2.92;;;2.20;;
27939;SDS011;15275;51.716;14.324;2023-04-24T00:05:51;3.13;;;2.53;;
27939;SDS011;15275;51.716;14.324;2023-04-24T00:08:17;5.43;;;2.30;;
27939;SDS011;15275;51.716;14.324;2023-04-24T00:10:43;3.20;;;2.65;;
27939;SDS011;15275;51.716;14.324;2023-04-24T00:13:09;4.05;;;2.33;;
27939;SDS011;15275;51.716;14.324;2023-04-24T00:15:36;4.60;;;3.15;;
27939;SDS011;15275;51.716;14.324;2023-04-24T00:18:02;4.13;;;2.72;;
27939;SDS011;15275;51.716;14.324;2023-04-24T00:20:28;3.10;;;2.38;;
27939;SDS011;15275;51.716;14.324;2023-04-24T00:22:58;3.15;;;2.65;;
27939;SDS011;15275;51.716;14.324;2023-04-24T00:25:24;3.60;;;2.33;;
27939;SDS011;15275;51.716;14.324;2023-04-24T00:27:50;3.83;;;2.70;;
27939;SDS011;15275;51.716;14.324;2023-04-24T00:30:16;4.38;;;2.40;;
27939;SDS011;15275;51.716;14.324;2023-04-24T00:32:42;3.25;;;2.67;;
27939;SDS011;15275;51.716;14.324;2023-04-24T00:35:08;3.53;;;2.40;;
27939;SDS011;15275;51.716;14.324;2023-04-24T00:37:33;4.07;;;2.90;;
27939;SDS011;15275;51.716;14.324;2023-04-24T00:39:59;3.67;;;2.80;;
27939;SDS011;15275;51.716;14.324;2023-04-24T00:42:25;3.75;;;2.63;;
27939;SDS011;15275;51.716;14.324;2023-04-24T00:44:51;4.25;;;2.50;;
27939;SDS011;15275;51.716;14.324;2023-04-24T00:47:18;3.92;;;2.83;;
27939;SDS011;15275;51.716;14.324;2023-04-24T00:49:45;4.15;;;2.80;;
27939;SDS011;15275;51.716;14.324;2023-04-24T00:52:10;3.53;;;2.33;;
27939;SDS011;15275;51.716;14.324;2023-04-24T00:54:37;3.72;;;2.67;;
27939;SDS011;15275;51.716;14.324;2023-04-24T00:57:03;3.88;;;2.83;;
27939;SDS011;15275;51.716;14.324;2023-04-24T00:59:30;4.97;;;2.80;;
27939;SDS011;15275;51.716;14.324;2023-04-24T01:01:56;3.63;;;2.60;;
27939;SDS011;15275;51.716;14.324;2023-04-24T01:04:23;5.70;;;2.95;;
27939;SDS011;15275;51.716;14.324;2023-04-24T01:06:51;2.92;;;2.38;;
27939;SDS011;15275;51.716;14.324;2023-04-24T01:09:17;2.65;;;2.22;;
27939;SDS011;15275;51.716;14.324;2023-04-24T01:11:44;5.80;;;2.92;;
27939;SDS011;15275;51.716;14.324;2023-04-24T01:14:10;2.55;;;2.08;;
27939;SDS011;15275;51.716;14.324;2023-04-24T01:16:35;5.07;;;2.97;;
27939;SDS011;15275;51.716;14.324;2023-04-24T01:19:03;3.83;;;2.50;;
27939;SDS011;15275;51.716;14.324;2023-04-24T01:21:30;3.33;;;2.50;;
27939;SDS011;15275;51.716;14.324;2023-04-24T01:24:02;6.45;;;2.67;;
27939;SDS011;15275;51.716;14.324;2023-04-24T01:26:30;5.00;;;2.78;;
27939;SDS011;15275;51.716;14.324;2023-04-24T01:28:56;4.28;;;2.42;;
27939;SDS011;15275;51.716;14.324;2023-04-24T01:31:21;5.57;;;2.70;;
27939;SDS011;15275;51.716;14.324;2023-04-24T01:33:48;4.03;;;2.75;;
27939;SDS011;15275;51.716;14.324;2023-04-24T01:36:16;4.22;;;2.80;;
27939;SDS011;15275;51.716;14.324;2023-04-24T01:38:42;3.78;;;3.22;;
27939;SDS011;15275;51.716;14.324;2023-04-24T01:41:07;3.50;;;2.55;;
27939;SDS011;15275;51.716;14.324;2023-04-24T01:43:33;4.82;;;3.28;;
27939;SDS011;15275;51.716;14.324;2023-04-24T01:45:59;4.47;;;2.85;;
27939;SDS011;15275;51.716;14.324;2023-04-24T01:48:25;4.68;;;3.00;;
27939;SDS011;15275;51.716;14.324;2023-04-24T01:50:52;3.35;;;2.70;;
27939;SDS011;15275;51.716;14.324;2023-04-24T01:53:17;3.80;;;2.88;;
27939;SDS011;15275;51.716;14.324;2023-04-24T01:55:43;2.97;;;2.53;;
27939;SDS011;15275;51.716;14.324;2023-04-24T01:58:09;5.18;;;3.03;;
27939;SDS011;15275;51.716;14.324;2023-04-24T02:00:35;5.75;;;3.00;;
27939;SDS011;15275;51.716;14.324;2023-04-24T02:03:01;16.75;;;3.40;;
27939;SDS011;15275;51.716;14.324;2023-04-24T02:05:27;3.78;;;2.72;;
27939;SDS011;15275;51.716;14.324;2023-04-24T02:07:54;4.45;;;2.75;;
27939;SDS011;15275;51.716;14.324;2023-04-24T02:10:20;3.90;;;2.67;;
27939;SDS011;15275;51.716;14.324;2023-04-24T02:12:46;3.85;;;2.72;;
27939;SDS011;15275;51.716;14.324;2023-04-24T02:15:12;6.53;;;3.17;;
27939;SDS011;15275;51.716;14.324;2023-04-24T02:17:38;6.57;;;3.55;;
27939;SDS011;15275;51.716;14.324;2023-04-24T02:20:05;5.03;;;2.88;;
27939;SDS011;15275;51.716;14.324;2023-04-24T02:22:32;7.63;;;2.70;;
27939;SDS011;15275;51.716;14.324;2023-04-24T02:24:57;4.95;;;2.95;;
27939;SDS011;15275;51.716;14.324;2023-04-24T02:27:23;5.45;;;3.22;;
27939;SDS011;15275;51.716;14.324;2023-04-24T02:29:49;3.58;;;2.58;;
27939;SDS011;15275;51.716;14.324;2023-04-24T02:32:15;4.55;;;2.65;;
27939;SDS011;15275;51.716;14.324;2023-04-24T02:34:41;4.25;;;3.17;;
27939;SDS011;15275;51.716;14.324;2023-04-24T02:37:06;4.70;;;3.17;;
27939;SDS011;15275;51.716;14.324;2023-04-24T02:39:32;3.92;;;2.80;;
27939;SDS011;15275;51.716;14.324;2023-04-24T02:41:58;4.93;;;2.75;;
27939;SDS011;15275;51.716;14.324;2023-04-24T02:44:24;3.47;;;2.72;;
27939;SDS011;15275;51.716;14.324;2023-04-24T02:46:50;3.83;;;3.00;;
27939;SDS011;15275;51.716;14.324;2023-04-24T02:49:16;6.00;;;2.90;;
27939;SDS011;15275;51.716;14.324;2023-04-24T02:51:42;3.50;;;2.35;;
27939;SDS011;15275;51.716;14.324;2023-04-24T02:54:08;4.05;;;2.88;;
27939;SDS011;15275;51.716;14.324;2023-04-24T02:56:34;6.50;;;2.85;;
27939;SDS011;15275;51.716;14.324;2023-04-24T02:59:01;4.97;;;3.28;;
27939;SDS011;15275;51.716;14.324;2023-04-24T03:01:27;4.85;;;2.90;;
27939;SDS011;15275;51.716;14.324;2023-04-24T03:03:52;3.53;;;2.60;;
27939;SDS011;15275;51.716;14.324;2023-04-24T03:06:18;4.35;;;2.90;;
27939;SDS011;15275;51.716;14.324;2023-04-24T03:08:46;3.42;;;2.53;;
27939;SDS011;15275;51.716;14.324;2023-04-24T03:11:12;4.15;;;2.63;;
27939;SDS011;15275;51.716;14.324;2023-04-24T03:13:38;4.78;;;2.80;;
27939;SDS011;15275;51.716;14.324;2023-04-24T03:16:04;4.85;;;3.00;;
27939;SDS011;15275;51.716;14.324;2023-04-24T03:18:30;5.40;;;3.00;;
27939;SDS011;15275;51.716;14.324;2023-04-24T03:20:56;5.55;;;3.08;;
27939;SDS011;15275;51.716;14.324;2023-04-24T03:23:22;6.82;;;3.28;;
27939;SDS011;15275;51.716;14.324;2023-04-24T03:25:48;5.00;;;3.30;;
27939;SDS011;15275;51.716;14.324;2023-04-24T03:28:14;5.18;;;3.00;;
27939;SDS011;15275;51.716;14.324;2023-04-24T03:30:40;5.28;;;2.95;;
27939;SDS011;15275;51.716;14.324;2023-04-24T03:33:05;4.60;;;3.13;;
27939;SDS011;15275;51.716;14.324;2023-04-24T03:35:31;6.90;;;3.17;;
27939;SDS011;15275;51.716;14.324;2023-04-24T03:37:57;5.20;;;3.17;;
27939;SDS011;15275;51.716;14.324;2023-04-24T03:40:23;4.47;;;3.22;;
27939;SDS011;15275;51.716;14.324;2023-04-24T03:42:49;4.50;;;3.35;;
27939;SDS011;15275;51.716;14.324;2023-04-24T03:45:15;4.38;;;3.20;;
27939;SDS011;15275;51.716;14.324;2023-04-24T03:47:40;4.32;;;3.15;;
27939;SDS011;15275;51.716;14.324;2023-04-24T03:50:06;5.03;;;3.05;;
27939;SDS011;15275;51.716;14.324;2023-04-24T03:52:32;3.40;;;2.75;;
27939;SDS011;15275;51.716;14.324;2023-04-24T03:54:58;4.38;;;3.03;;
27939;SDS011;15275;51.716;14.324;2023-04-24T03:57:24;4.43;;;3.05;;
27939;SDS011;15275;51.716;14.324;2023-04-24T03:59:50;5.07;;;3.15;;
27939;SDS011;15275;51.716;14.324;2023-04-24T04:02:16;7.50;;;3.53;;
27939;SDS011;15275;51.716;14.324;2023-04-24T04:04:42;4.10;;;3.28;;
27939;SDS011;15275;51.716;14.324;2023-04-24T04:07:08;4.55;;;3.30;;
27939;SDS011;15275;51.716;14.324;2023-04-24T04:09:33;3.45;;;2.72;;
27939;SDS011;15275;51.716;14.324;2023-04-24T04:11:59;5.70;;;3.20;;
27939;SDS011;15275;51.716;14.324;2023-04-24T04:14:25;5.85;;;3.45;;
27939;SDS011;15275;51.716;14.324;2023-04-24T04:16:52;5.15;;;3.15;;
27939;SDS011;15275;51.716;14.324;2023-04-24T04:19:18;8.45;;;3.10;;
27939;SDS011;15275;51.716;14.324;2023-04-24T04:21:43;4.65;;;2.90;;
27939;SDS011;15275;51.716;14.324;2023-04-24T04:24:10;3.55;;;2.47;;
27939;SDS011;15275;51.716;14.324;2023-04-24T04:26:37;4.68;;;3.22;;
27939;SDS011;15275;51.716;14.324;2023-04-24T04:29:04;5.60;;;2.67;;
27939;SDS011;15275;51.716;14.324;2023-04-24T04:31:29;3.45;;;2.63;;
27939;SDS011;15275;51.716;14.324;2023-04-24T04:33:55;3.17;;;2.55;;
27939;SDS011;15275;51.716;14.324;2023-04-24T04:36:21;3.10;;;2.38;;
27939;SDS011;15275;51.716;14.324;2023-04-24T04:38:49;3.40;;;2.63;;
27939;SDS011;15275;51.716;14.324;2023-04-24T04:41:14;3.55;;;2.58;;
27939;SDS011;15275;51.716;14.324;2023-04-24T04:43:41;3.25;;;2.63;;
27939;SDS011;15275;51.716;14.324;2023-04-24T04:46:07;2.90;;;2.40;;
27939;SDS011;15275;51.716;14.324;2023-04-24T04:48:35;3.38;;;2.58;;
27939;SDS011;15275;51.716;14.324;2023-04-24T04:51:01;2.60;;;2.35;;
27939;SDS011;15275;51.716;14.324;2023-04-24T04:53:27;3.42;;;2.50;;
27939;SDS011;15275;51.716;14.324;2023-04-24T04:55:53;3.42;;;2.55;;
27939;SDS011;15275;51.716;14.324;2023-04-24T04:58:19;5.85;;;3.50;;
27939;SDS011;15275;51.716;14.324;2023-04-24T05:00:45;2.85;;;2.33;;
27939;SDS011;15275;51.716;14.324;2023-04-24T05:03:11;3.38;;;2.38;;
27939;SDS011;15275;51.716;14.324;2023-04-24T05:05:37;2.58;;;2.08;;
27939;SDS011;15275;51.716;14.324;2023-04-24T05:08:05;3.42;;;2.63;;
27939;SDS011;15275;51.716;14.324;2023-04-24T05:10:33;3.65;;;3.00;;
27939;SDS011;15275;51.716;14.324;2023-04-24T05:12:59;3.78;;;2.92;;
27939;SDS011;15275;51.716;14.324;2023-04-24T05:15:26;2.88;;;2.47;;
27939;SDS011;15275;51.716;14.324;2023-04-24T05:17:52;3.20;;;2.30;;
27939;SDS011;15275;51.716;14.324;2023-04-24T05:20:17;3.47;;;2.35;;
27939;SDS011;15275;51.716;14.324;2023-04-24T05:22:43;3.40;;;2.28;;
27939;SDS011;15275;51.716;14.324;2023-04-24T05:25:09;3.33;;;2.40;;
27939;SDS011;15275;51.716;14.324;2023-04-24T05:27:35;3.40;;;2.13;;
27939;SDS011;15275;51.716;14.324;2023-04-24T05:30:01;4.32;;;2.10;;
27939;SDS011;15275;51.716;14.324;2023-04-24T05:32:27;3.33;;;2.55;;
27939;SDS011;15275;51.716;14.324;2023-04-24T05:34:52;2.53;;;2.10;;
27939;SDS011;15275;51.716;14.324;2023-04-24T05:37:18;2.30;;;1.80;;
27939;SDS011;15275;51.716;14.324;2023-04-24T05:39:44;2.50;;;2.20;;
27939;SDS011;15275;51.716;14.324;2023-04-24T05:42:10;5.60;;;2.22;;
27939;SDS011;15275;51.716;14.324;2023-04-24T05:44:36;3.25;;;2.35;;
27939;SDS011;15275;51.716;14.324;2023-04-24T05:47:01;4.43;;;1.90;;
27939;SDS011;15275;51.716;14.324;2023-04-24T05:49:27;3.53;;;1.75;;
27939;SDS011;15275;51.716;14.324;2023-04-24T05:51:53;4.00;;;1.70;;
27939;SDS011;15275;51.716;14.324;2023-04-24T05:54:19;2.58;;;1.70;;
27939;SDS011;15275;51.716;14.324;2023-04-24T05:56:45;2.50;;;1.55;;
27939;SDS011;15275;51.716;14.324;2023-04-24T05:59:11;4.38;;;1.92;;
27939;SDS011;15275;51.716;14.324;2023-04-24T06:01:37;3.03;;;1.70;;
27939;SDS011;15275;51.716;14.324;2023-04-24T06:04:03;6.03;;;1.80;;
27939;SDS011;15275;51.716;14.324;2023-04-24T06:06:29;2.10;;;1.48;;
27939;SDS011;15275;51.716;14.324;2023-04-24T06:08:56;2.00;;;1.65;;
27939;SDS011;15275;51.716;14.324;2023-04-24T06:11:22;4.63;;;1.58;;
27939;SDS011;15275;51.716;14.324;2023-04-24T06:13:47;1.55;;;1.30;;
27939;SDS011;15275;51.716;14.324;2023-04-24T06:16:13;3.58;;;1.80;;
27939;SDS011;15275;51.716;14.324;2023-04-24T06:18:39;1.88;;;1.15;;
27939;SDS011;15275;51.716;14.324;2023-04-24T06:21:05;3.15;;;1.30;;
27939;SDS011;15275;51.716;14.324;2023-04-24T06:23:31;2.03;;;1.45;;
27939;SDS011;15275;51.716;14.324;2023-04-24T06:25:58;1.85;;;1.20;;
27939;SDS011;15275;51.716;14.324;2023-04-24T06:28:24;1.38;;;0.90;;
27939;SDS011;15275;51.716;14.324;2023-04-24T06:30:51;2.00;;;0.80;;
27939;SDS011;15275;51.716;14.324;2023-04-24T06:33:17;2.13;;;1.02;;
27939;SDS011;15275;51.716;14.324;2023-04-24T06:35:43;1.33;;;0.93;;
27939;SDS011;15275;51.716;14.324;2023-04-24T06:38:09;1.88;;;0.90;;
27939;SDS011;15275;51.716;14.324;2023-04-24T06:40:34;0.77;;;0.60;;
27939;SDS011;15275;51.716;14.324;2023-04-24T06:43:00;1.83;;;0.80;;
27939;SDS011;15275;51.716;14.324;2023-04-24T06:45:28;0.68;;;0.50;;
27939;SDS011;15275;51.716;14.324;2023-04-24T06:47:54;0.75;;;0.65;;
27939;SDS011;15275;51.716;14.324;2023-04-24T06:50:21;1.17;;;0.63;;
27939;SDS011;15275;51.716;14.324;2023-04-24T06:52:47;0.80;;;0.68;;
27939;SDS011;15275;51.716;14.324;2023-04-24T06:55:13;0.63;;;0.63;;
27939;SDS011;15275;51.716;14.324;2023-04-24T06:57:40;0.80;;;0.60;;
27939;SDS011;15275;51.716;14.324;2023-04-24T07:00:06;1.70;;;0.80;;
27939;SDS011;15275;51.716;14.324;2023-04-24T07:02:34;2.00;;;0.57;;
27939;SDS011;15275;51.716;14.324;2023-04-24T07:05:00;2.85;;;1.13;;
27939;SDS011;15275;51.716;14.324;2023-04-24T07:07:26;0.82;;;0.63;;
27939;SDS011;15275;51.716;14.324;2023-04-24T07:09:52;0.50;;;0.50;;
27939;SDS011;15275;51.716;14.324;2023-04-24T07:12:19;2.17;;;0.70;;
27939;SDS011;15275;51.716;14.324;2023-04-24T07:14:46;1.42;;;0.85;;
27939;SDS011;15275;51.716;14.324;2023-04-24T07:17:13;0.93;;;0.82;;
27939;SDS011;15275;51.716;14.324;2023-04-24T07:19:39;1.63;;;0.70;;
27939;SDS011;15275;51.716;14.324;2023-04-24T07:22:05;1.00;;;0.70;;
27939;SDS011;15275;51.716;14.324;2023-04-24T07:24:31;1.10;;;1.00;;
27939;SDS011;15275;51.716;14.324;2023-04-24T07:26:57;1.30;;;0.75;;
27939;SDS011;15275;51.716;14.324;2023-04-24T07:29:24;0.70;;;0.70;;
27939;SDS011;15275;51.716;14.324;2023-04-24T07:31:50;1.52;;;0.85;;
27939;SDS011;15275;51.716;14.324;2023-04-24T07:34:16;2.50;;;0.68;;
27939;SDS011;15275;51.716;14.324;2023-04-24T07:36:42;2.33;;;0.98;;
27939;SDS011;15275;51.716;14.324;2023-04-24T07:39:08;0.52;;;0.50;;
27939;SDS011;15275;51.716;14.324;2023-04-24T07:41:34;0.70;;;0.60;;
27939;SDS011;15275;51.716;14.324;2023-04-24T07:43:59;1.17;;;0.90;;
27939;SDS011;15275;51.716;14.324;2023-04-24T07:46:25;1.52;;;0.73;;
27939;SDS011;15275;51.716;14.324;2023-04-24T07:48:54;0.68;;;0.60;;
27939;SDS011;15275;51.716;14.324;2023-04-24T07:51:20;2.83;;;0.68;;
27939;SDS011;15275;51.716;14.324;2023-04-24T07:53:46;5.80;;;0.88;;
27939;SDS011;15275;51.716;14.324;2023-04-24T07:56:12;2.50;;;1.00;;
27939;SDS011;15275;51.716;14.324;2023-04-24T07:58:38;0.70;;;0.52;;
27939;SDS011;15275;51.716;14.324;2023-04-24T08:01:04;0.93;;;0.57;;
27939;SDS011;15275;51.716;14.324;2023-04-24T08:03:30;1.92;;;1.10;;
27939;SDS011;15275;51.716;14.324;2023-04-24T08:05:56;0.88;;;0.70;;
27939;SDS011;15275;51.716;14.324;2023-04-24T08:08:22;1.38;;;0.90;;
27939;SDS011;15275;51.716;14.324;2023-04-24T08:10:49;2.45;;;1.13;;
27939;SDS011;15275;51.716;14.324;2023-04-24T08:13:15;1.90;;;0.82;;
27939;SDS011;15275;51.716;14.324;2023-04-24T08:15:41;1.00;;;0.70;;
27939;SDS011;15275;51.716;14.324;2023-04-24T08:18:07;4.25;;;0.70;;
27939;SDS011;15275;51.716;14.324;2023-04-24T08:20:33;0.88;;;0.60;;
27939;SDS011;15275;51.716;14.324;2023-04-24T08:22:58;1.10;;;0.60;;
27939;SDS011;15275;51.716;14.324;2023-04-24T08:25:24;0.85;;;0.82;;
27939;SDS011;15275;51.716;14.324;2023-04-24T08:27:51;8.88;;;1.33;;
27939;SDS011;15275;51.716;14.324;2023-04-24T08:30:17;2.05;;;0.90;;
27939;SDS011;15275;51.716;14.324;2023-04-24T08:32:43;2.45;;;0.73;;
27939;SDS011;15275;51.716;14.324;2023-04-24T08:35:09;1.52;;;0.77;;
27939;SDS011;15275;51.716;14.324;2023-04-24T08:37:35;1.42;;;0.80;;
27939;SDS011;15275;51.716;14.324;2023-04-24T08:40:35;1.17;;;0.88;;
27939;SDS011;15275;51.716;14.324;2023-04-24T08:42:56;1.25;;;0.73;;
27939;SDS011;15275;51.716;14.324;2023-04-24T08:45:23;1.17;;;0.73;;
27939;SDS011;15275;51.716;14.324;2023-04-24T08:47:49;1.13;;;0.80;;
27939;SDS011;15275;51.716;14.324;2023-04-24T08:50:18;1.10;;;1.00;;
27939;SDS011;15275;51.716;14.324;2023-04-24T08:52:44;1.15;;;0.80;;
27939;SDS011;15275;51.716;14.324;2023-04-24T08:55:10;2.53;;;1.10;;
27939;SDS011;15275;51.716;14.324;2023-04-24T08:57:36;2.80;;;0.90;;
27939;SDS011;15275;51.716;14.324;2023-04-24T09:00:05;0.90;;;0.90;;
27939;SDS011;15275;51.716;14.324;2023-04-24T09:02:31;1.67;;;0.85;;
27939;SDS011;15275;51.716;14.324;2023-04-24T09:04:59;1.75;;;0.88;;
27939;SDS011;15275;51.716;14.324;2023-04-24T09:07:27;5.43;;;0.80;;
27939;SDS011;15275;51.716;14.324;2023-04-24T09:09:54;2.53;;;0.70;;
27939;SDS011;15275;51.716;14.324;2023-04-24T09:12:20;1.55;;;0.77;;
27939;SDS011;15275;51.716;14.324;2023-04-24T09:14:46;0.57;;;0.50;;
27939;SDS011;15275;51.716;14.324;2023-04-24T09:17:14;1.92;;;0.80;;
27939;SDS011;15275;51.716;14.324;2023-04-24T09:19:40;4.13;;;0.82;;
27939;SDS011;15275;51.716;14.324;2023-04-24T09:22:06;1.08;;;0.85;;
27939;SDS011;15275;51.716;14.324;2023-04-24T09:24:34;3.90;;;0.88;;
27939;SDS011;15275;51.716;14.324;2023-04-24T09:27:00;1.33;;;0.63;;
27939;SDS011;15275;51.716;14.324;2023-04-24T09:29:26;0.50;;;0.50;;
27939;SDS011;15275;51.716;14.324;2023-04-24T09:31:53;1.52;;;0.70;;
27939;SDS011;15275;51.716;14.324;2023-04-24T09:34:23;1.33;;;0.75;;
27939;SDS011;15275;51.716;14.324;2023-04-24T09:36:54;1.83;;;1.02;;
27939;SDS011;15275;51.716;14.324;2023-04-24T09:39:20;1.58;;;0.80;;
27939;SDS011;15275;51.716;14.324;2023-04-24T09:41:53;1.40;;;0.65;;
27939;SDS011;15275;51.716;14.324;2023-04-24T09:44:26;0.68;;;0.68;;
27939;SDS011;15275;51.716;14.324;2023-04-24T09:46:59;1.30;;;0.63;;
27939;SDS011;15275;51.716;14.324;2023-04-24T09:49:29;1.98;;;0.88;;
27939;SDS011;15275;51.716;14.324;2023-04-24T09:52:08;2.42;;;0.68;;
27939;SDS011;15275;51.716;14.324;2023-04-24T09:54:35;1.00;;;0.60;;
27939;SDS011;15275;51.716;14.324;2023-04-24T09:57:02;1.85;;;0.80;;
27939;SDS011;15275;51.716;14.324;2023-04-24T09:59:29;1.67;;;0.75;;
27939;SDS011;15275;51.716;14.324;2023-04-24T10:01:55;2.40;;;0.77;;
27939;SDS011;15275;51.716;14.324;2023-04-24T10:04:27;1.23;;;0.70;;
27939;SDS011;15275;51.716;14.324;2023-04-24T10:06:55;2.25;;;0.70;;
27939;SDS011;15275;51.716;14.324;2023-04-24T10:09:23;1.45;;;0.70;;
27939;SDS011;15275;51.716;14.324;2023-04-24T10:11:51;1.48;;;0.75;;
27939;SDS011;15275;51.716;14.324;2023-04-24T10:14:20;3.58;;;0.90;;
27939;SDS011;15275;51.716;14.324;2023-04-24T10:16:52;1.67;;;0.68;;
27939;SDS011;15275;51.716;14.324;2023-04-24T10:19:20;3.03;;;0.60;;
27939;SDS011;15275;51.716;14.324;2023-04-24T10:21:46;3.00;;;0.70;;
27939;SDS011;15275;51.716;14.324;2023-04-24T10:24:16;1.33;;;0.60;;
27939;SDS011;15275;51.716;14.324;2023-04-24T10:26:43;1.00;;;0.60;;
27939;SDS011;15275;51.716;14.324;2023-04-24T10:29:14;2.08;;;0.98;;
27939;SDS011;15275;51.716;14.324;2023-04-24T10:31:42;1.55;;;0.73;;
27939;SDS011;15275;51.716;14.324;2023-04-24T10:34:11;0.90;;;0.50;;
27939;SDS011;15275;51.716;14.324;2023-04-24T10:36:39;1.70;;;0.80;;
27939;SDS011;15275;51.716;14.324;2023-04-24T10:39:11;2.30;;;0.60;;
27939;SDS011;15275;51.716;14.324;2023-04-24T10:41:40;1.83;;;0.73;;
27939;SDS011;15275;51.716;14.324;2023-04-24T10:44:06;1.95;;;0.80;;
27939;SDS011;15275;51.716;14.324;2023-04-24T10:46:34;2.58;;;0.70;;
27939;SDS011;15275;51.716;14.324;2023-04-24T10:49:05;1.65;;;0.80;;
27939;SDS011;15275;51.716;14.324;2023-04-24T10:54:25;2.80;;;0.70;;
27939;SDS011;15275;51.716;14.324;2023-04-24T10:59:50;1.60;;;0.65;;
27939;SDS011;15275;51.716;14.324;2023-04-24T11:02:40;1.75;;;0.73;;
27939;SDS011;15275;51.716;14.324;2023-04-24T11:05:17;1.23;;;0.73;;
27939;SDS011;15275;51.716;14.324;2023-04-24T11:10:43;3.22;;;0.50;;
27939;SDS011;15275;51.716;14.324;2023-04-24T11:13:22;2.40;;;0.77;;
27939;SDS011;15275;51.716;14.324;2023-04-24T11:16:33;0.90;;;0.55;;
27939;SDS011;15275;51.716;14.324;2023-04-24T11:18:41;0.95;;;0.50;;
27939;SDS011;15275;51.716;14.324;2023-04-24T11:21:16;1.50;;;0.55;;
27939;SDS011;15275;51.716;14.324;2023-04-24T11:23:42;1.33;;;0.77;;
27939;SDS011;15275;51.716;14.324;2023-04-24T11:26:17;3.80;;;0.75;;
27939;SDS011;15275;51.716;14.324;2023-04-24T11:28:47;1.48;;;0.65;;
27939;SDS011;15275;51.716;14.324;2023-04-24T11:34:10;1.25;;;0.70;;
27939;SDS011;15275;51.716;14.324;2023-04-24T11:36:40;0.93;;;0.73;;
27939;SDS011;15275;51.716;14.324;2023-04-24T11:39:11;1.48;;;0.80;;
27939;SDS011;15275;51.716;14.324;2023-04-24T11:41:37;1.80;;;0.60;;
27939;SDS011;15275;51.716;14.324;2023-04-24T11:44:05;0.88;;;0.70;;
27939;SDS011;15275;51.716;14.324;2023-04-24T11:46:34;0.90;;;0.50;;
27939;SDS011;15275;51.716;14.324;2023-04-24T11:48:59;1.05;;;0.60;;
27939;SDS011;15275;51.716;14.324;2023-04-24T11:51:26;1.67;;;0.70;;
27939;SDS011;15275;51.716;14.324;2023-04-24T11:53:53;2.17;;;0.63;;
27939;SDS011;15275;51.716;14.324;2023-04-24T11:56:21;2.63;;;0.90;;
27939;SDS011;15275;51.716;14.324;2023-04-24T11:58:48;0.65;;;0.50;;
27939;SDS011;15275;51.716;14.324;2023-04-24T12:01:17;2.15;;;0.65;;
27939;SDS011;15275;51.716;14.324;2023-04-24T12:03:47;1.45;;;0.60;;
27939;SDS011;15275;51.716;14.324;2023-04-24T12:06:14;2.58;;;0.52;;
27939;SDS011;15275;51.716;14.324;2023-04-24T12:08:39;0.98;;;0.60;;
27939;SDS011;15275;51.716;14.324;2023-04-24T12:11:06;1.30;;;0.60;;
27939;SDS011;15275;51.716;14.324;2023-04-24T12:13:32;1.08;;;0.68;;
27939;SDS011;15275;51.716;14.324;2023-04-24T12:15:59;1.58;;;0.70;;
27939;SDS011;15275;51.716;14.324;2023-04-24T12:18:29;2.08;;;0.50;;
27939;SDS011;15275;51.716;14.324;2023-04-24T12:21:14;0.68;;;0.50;;
27939;SDS011;15275;51.716;14.324;2023-04-24T12:23:54;0.73;;;0.50;;
27939;SDS011;15275;51.716;14.324;2023-04-24T12:26:20;0.98;;;0.50;;
27939;SDS011;15275;51.716;14.324;2023-04-24T12:28:48;1.65;;;0.60;;
27939;SDS011;15275;51.716;14.324;2023-04-24T12:31:15;1.40;;;0.98;;
27939;SDS011;15275;51.716;14.324;2023-04-24T12:33:42;0.60;;;0.60;;
27939;SDS011;15275;51.716;14.324;2023-04-24T12:36:11;0.70;;;0.43;;
27939;SDS011;15275;51.716;14.324;2023-04-24T12:38:38;0.50;;;0.50;;
27939;SDS011;15275;51.716;14.324;2023-04-24T12:41:10;3.45;;;0.70;;
27939;SDS011;15275;51.716;14.324;2023-04-24T12:43:38;1.65;;;0.70;;
27939;SDS011;15275;51.716;14.324;2023-04-24T12:46:20;1.20;;;0.65;;
27939;SDS011;15275;51.716;14.324;2023-04-24T12:48:46;0.80;;;0.60;;
27939;SDS011;15275;51.716;14.324;2023-04-24T12:51:12;1.13;;;0.60;;
27939;SDS011;15275;51.716;14.324;2023-04-24T12:53:37;1.27;;;0.70;;
27939;SDS011;15275;51.716;14.324;2023-04-24T12:56:03;1.23;;;0.60;;
27939;SDS011;15275;51.716;14.324;2023-04-24T12:58:29;0.80;;;0.60;;
27939;SDS011;15275;51.716;14.324;2023-04-24T13:00:55;2.45;;;0.60;;
27939;SDS011;15275;51.716;14.324;2023-04-24T13:03:21;1.50;;;0.52;;
27939;SDS011;15275;51.716;14.324;2023-04-24T13:05:47;0.93;;;0.43;;
27939;SDS011;15275;51.716;14.324;2023-04-24T13:08:13;2.20;;;0.75;;
27939;SDS011;15275;51.716;14.324;2023-04-24T13:10:39;1.27;;;0.50;;
27939;SDS011;15275;51.716;14.324;2023-04-24T13:13:05;0.82;;;0.60;;
27939;SDS011;15275;51.716;14.324;2023-04-24T13:15:32;0.85;;;0.55;;
27939;SDS011;15275;51.716;14.324;2023-04-24T13:17:58;2.40;;;0.70;;
27939;SDS011;15275;51.716;14.324;2023-04-24T13:20:24;1.38;;;0.70;;
27939;SDS011;15275;51.716;14.324;2023-04-24T13:22:50;1.10;;;0.50;;
27939;SDS011;15275;51.716;14.324;2023-04-24T13:25:16;0.52;;;0.50;;
27939;SDS011;15275;51.716;14.324;2023-04-24T13:27:42;1.02;;;0.40;;
27939;SDS011;15275;51.716;14.324;2023-04-24T13:30:08;0.73;;;0.52;;
27939;SDS011;15275;51.716;14.324;2023-04-24T13:32:35;0.98;;;0.50;;
27939;SDS011;15275;51.716;14.324;2023-04-24T13:35:02;1.80;;;0.38;;
27939;SDS011;15275;51.716;14.324;2023-04-24T13:37:28;1.48;;;0.47;;
27939;SDS011;15275;51.716;14.324;2023-04-24T13:39:54;0.35;;;0.32;;
27939;SDS011;15275;51.716;14.324;2023-04-24T13:42:20;0.47;;;0.40;;
27939;SDS011;15275;51.716;14.324;2023-04-24T13:44:46;1.38;;;0.43;;
27939;SDS011;15275;51.716;14.324;2023-04-24T13:47:12;0.43;;;0.43;;
27939;SDS011;15275;51.716;14.324;2023-04-24T13:49:37;2.10;;;0.82;;
27939;SDS011;15275;51.716;14.324;2023-04-24T13:52:03;0.50;;;0.40;;
27939;SDS011;15275;51.716;14.324;2023-04-24T13:54:29;5.93;;;0.90;;
27939;SDS011;15275;51.716;14.324;2023-04-24T13:56:57;2.28;;;0.70;;
27939;SDS011;15275;51.716;14.324;2023-04-24T13:59:23;1.17;;;0.60;;
27939;SDS011;15275;51.716;14.324;2023-04-24T14:01:50;2.28;;;0.60;;
27939;SDS011;15275;51.716;14.324;2023-04-24T14:04:16;2.05;;;0.60;;
27939;SDS011;15275;51.716;14.324;2023-04-24T14:06:41;1.95;;;0.75;;
27939;SDS011;15275;51.716;14.324;2023-04-24T14:09:08;4.43;;;1.05;;
27939;SDS011;15275;51.716;14.324;2023-04-24T14:11:34;1.90;;;0.75;;
27939;SDS011;15275;51.716;14.324;2023-04-24T14:14:00;1.83;;;0.98;;
27939;SDS011;15275;51.716;14.324;2023-04-24T14:16:26;5.80;;;0.90;;
27939;SDS011;15275;51.716;14.324;2023-04-24T14:18:53;3.40;;;0.60;;
27939;SDS011;15275;51.716;14.324;2023-04-24T14:21:19;0.75;;;0.70;;
27939;SDS011;15275;51.716;14.324;2023-04-24T14:23:45;1.48;;;0.80;;
27939;SDS011;15275;51.716;14.324;2023-04-24T14:26:11;0.85;;;0.68;;
27939;SDS011;15275;51.716;14.324;2023-04-24T14:28:37;1.40;;;0.70;;
27939;SDS011;15275;51.716;14.324;2023-04-24T14:31:03;0.95;;;0.88;;
27939;SDS011;15275;51.716;14.324;2023-04-24T14:33:29;4.95;;;0.88;;
27939;SDS011;15275;51.716;14.324;2023-04-24T14:35:55;1.98;;;0.70;;
27939;SDS011;15275;51.716;14.324;2023-04-24T14:38:21;2.28;;;0.75;;
27939;SDS011;15275;51.716;14.324;2023-04-24T14:40:47;1.02;;;0.80;;
27939;SDS011;15275;51.716;14.324;2023-04-24T14:43:13;4.57;;;0.80;;